createdAt,value
2018-03-18T00:00:01.654Z,8.40
2018-03-18T00:02:32.620Z,9.13
2018-03-18T00:05:00.031Z,8.23
2018-03-18T00:07:27.463Z,8.57
2018-03-18T00:09:54.861Z,8.97
2018-03-18T00:12:22.255Z,8.67
2018-03-18T00:14:49.682Z,8.97
2018-03-18T00:17:17.081Z,8.57
2018-03-18T00:19:44.508Z,8.87
2018-03-18T00:22:12.003Z,8.40
2018-03-18T00:24:39.403Z,8.57
2018-03-18T00:27:06.807Z,9.83
2018-03-18T00:29:34.243Z,9.47
2018-03-18T00:32:01.637Z,9.67
2018-03-18T00:34:29.392Z,9.33
2018-03-18T00:36:56.794Z,8.70
2018-03-18T00:39:24.206Z,9.17
2018-03-18T00:41:51.618Z,9.27
2018-03-18T00:44:19.023Z,9.23
2018-03-18T00:46:46.444Z,8.57
2018-03-18T00:49:13.860Z,10.47
2018-03-18T00:51:53.134Z,8.60
2018-03-18T00:54:20.539Z,8.63
2018-03-18T00:56:48.051Z,8.93
2018-03-18T00:59:15.467Z,8.13
2018-03-18T01:01:42.880Z,8.73
2018-03-18T01:04:10.294Z,8.77
2018-03-18T01:06:37.692Z,8.23
2018-03-18T01:09:05.386Z,9.03
2018-03-18T01:11:32.783Z,9.00
2018-03-18T01:14:00.184Z,8.50
2018-03-18T01:16:27.591Z,9.27
2018-03-18T01:18:55.012Z,9.00
2018-03-18T01:21:22.422Z,8.70
2018-03-18T01:23:49.839Z,8.97
2018-03-18T01:26:17.246Z,8.93
2018-03-18T01:28:44.637Z,9.93
2018-03-18T01:31:12.031Z,8.43
2018-03-18T01:33:39.443Z,8.53
2018-03-18T01:36:06.854Z,9.93
2018-03-18T01:38:34.268Z,8.77
2018-03-18T01:41:01.675Z,9.03
2018-03-18T01:43:29.083Z,8.67
2018-03-18T01:45:56.517Z,8.57
2018-03-18T01:48:23.920Z,8.33
2018-03-18T01:50:51.330Z,9.13
2018-03-18T01:53:21.629Z,8.97
2018-03-18T01:55:49.023Z,8.77
2018-03-18T01:58:16.553Z,8.67
2018-03-18T02:00:43.938Z,9.40
2018-03-18T02:03:11.351Z,8.67
2018-03-18T02:05:38.768Z,8.80
2018-03-18T02:08:06.167Z,9.00
2018-03-18T02:10:33.799Z,9.07
2018-03-18T02:13:01.211Z,8.97
2018-03-18T02:15:28.624Z,8.43
2018-03-18T02:17:57.844Z,9.17
2018-03-18T02:20:25.256Z,9.10
2018-03-18T02:22:52.663Z,8.30
2018-03-18T02:25:20.051Z,8.50
2018-03-18T02:27:47.463Z,8.40
2018-03-18T02:30:14.855Z,8.77
2018-03-18T02:32:42.398Z,8.87
2018-03-18T02:35:09.804Z,8.97
2018-03-18T02:37:37.198Z,8.23
2018-03-18T02:40:04.606Z,9.17
2018-03-18T02:42:32.015Z,9.77
2018-03-18T02:44:59.416Z,8.17
2018-03-18T02:47:26.835Z,8.80
2018-03-18T02:49:54.240Z,8.33
2018-03-18T02:52:21.648Z,8.10
2018-03-18T02:54:49.039Z,8.40
2018-03-18T02:57:16.458Z,8.50
2018-03-18T02:59:43.864Z,9.50
2018-03-18T03:02:11.271Z,8.83
2018-03-18T03:04:38.650Z,8.10
2018-03-18T03:07:06.055Z,8.37
2018-03-18T03:09:33.453Z,8.83
2018-03-18T03:12:00.863Z,9.27
2018-03-18T03:14:28.267Z,9.33
2018-03-18T03:16:55.734Z,8.90
2018-03-18T03:19:23.134Z,9.37
2018-03-18T03:21:50.572Z,8.70
2018-03-18T03:24:17.967Z,9.10
2018-03-18T03:26:45.367Z,9.17
2018-03-18T03:29:12.767Z,8.83
2018-03-18T03:31:40.176Z,9.10
2018-03-18T03:34:07.603Z,8.80
2018-03-18T03:36:34.967Z,9.03
2018-03-18T03:39:02.531Z,8.77
2018-03-18T03:41:29.927Z,9.20
2018-03-18T03:43:57.336Z,9.63
2018-03-18T03:46:24.899Z,9.43
2018-03-18T03:48:52.299Z,9.20
2018-03-18T03:51:19.686Z,8.77
2018-03-18T03:53:47.099Z,9.77
2018-03-18T03:56:14.525Z,9.40
2018-03-18T03:58:41.926Z,9.80
2018-03-18T04:01:09.342Z,8.93
2018-03-18T04:03:36.769Z,8.73
2018-03-18T04:06:04.159Z,8.80
2018-03-18T04:08:31.559Z,9.53
2018-03-18T04:10:58.967Z,9.33
2018-03-18T04:13:26.380Z,9.93
2018-03-18T04:15:53.776Z,9.70
2018-03-18T04:18:21.180Z,9.37
2018-03-18T04:20:48.823Z,10.83
2018-03-18T04:23:16.219Z,10.67
2018-03-18T04:25:43.633Z,9.30
2018-03-18T04:28:11.159Z,8.87
2018-03-18T04:30:38.554Z,8.27
2018-03-18T04:33:05.972Z,10.37
2018-03-18T04:35:33.396Z,8.70
2018-03-18T04:38:00.796Z,10.47
2018-03-18T04:40:28.195Z,9.77
2018-03-18T04:42:55.603Z,9.70
2018-03-18T04:45:23.031Z,9.47
2018-03-18T04:47:50.435Z,9.80
2018-03-18T04:50:17.853Z,9.57
2018-03-18T04:52:45.255Z,10.47
2018-03-18T04:55:13.517Z,9.23
2018-03-18T04:57:40.942Z,9.47
2018-03-18T05:00:08.352Z,9.77
2018-03-18T05:02:35.743Z,9.33
2018-03-18T05:05:03.151Z,9.67
2018-03-18T05:07:30.914Z,10.63
2018-03-18T05:09:58.315Z,9.57
2018-03-18T05:12:25.717Z,9.47
2018-03-18T05:14:53.136Z,11.07
2018-03-18T05:17:20.543Z,9.63
2018-03-18T05:19:47.951Z,10.17
2018-03-18T05:22:15.363Z,9.60
2018-03-18T05:24:42.758Z,9.60
2018-03-18T05:27:10.179Z,9.67
2018-03-18T05:29:37.576Z,9.93
2018-03-18T05:32:04.971Z,10.97
2018-03-18T05:34:32.385Z,9.43
2018-03-18T05:36:59.786Z,10.03
2018-03-18T05:39:27.218Z,9.83
2018-03-18T05:41:54.623Z,10.00
2018-03-18T05:44:22.019Z,9.50
2018-03-18T05:46:49.433Z,10.50
2018-03-18T05:49:16.995Z,9.50
2018-03-18T05:51:44.424Z,9.13
2018-03-18T05:54:11.843Z,9.17
2018-03-18T05:56:39.259Z,10.00
2018-03-18T05:59:06.662Z,9.87
2018-03-18T06:01:34.100Z,10.13
2018-03-18T06:04:01.512Z,10.20
2018-03-18T06:06:28.910Z,10.13
2018-03-18T06:08:56.331Z,9.00
2018-03-18T06:11:23.765Z,10.63
2018-03-18T06:13:51.159Z,11.40
2018-03-18T06:16:18.564Z,10.33
2018-03-18T06:18:45.971Z,9.47
2018-03-18T06:21:13.388Z,10.20
2018-03-18T06:23:40.804Z,10.63
2018-03-18T06:26:08.207Z,11.03
2018-03-18T06:28:35.631Z,10.37
2018-03-18T06:31:03.039Z,10.87
2018-03-18T06:33:30.451Z,10.10
2018-03-18T06:35:57.852Z,10.20
2018-03-18T06:38:25.267Z,10.77
2018-03-18T06:40:52.669Z,9.97
2018-03-18T06:43:20.331Z,9.07
2018-03-18T06:45:47.731Z,10.03
2018-03-18T06:48:15.135Z,10.57
2018-03-18T06:50:42.561Z,10.67
2018-03-18T06:53:09.953Z,9.97
2018-03-18T06:55:37.375Z,11.30
2018-03-18T06:58:04.771Z,10.47
2018-03-18T07:00:32.191Z,9.77
2018-03-18T07:02:59.590Z,9.60
2018-03-18T07:05:27.016Z,10.17
2018-03-18T07:07:54.402Z,9.80
2018-03-18T07:10:21.831Z,10.40
2018-03-18T07:12:49.244Z,9.37
2018-03-18T07:15:16.806Z,10.47
2018-03-18T07:17:44.231Z,11.10
2018-03-18T07:20:11.678Z,10.60
2018-03-18T07:22:39.343Z,10.87
2018-03-18T07:25:06.744Z,9.87
2018-03-18T07:27:34.158Z,11.47
2018-03-18T07:30:01.569Z,11.30
2018-03-18T07:32:28.984Z,9.80
2018-03-18T07:34:56.376Z,10.27
2018-03-18T07:37:23.787Z,9.23
2018-03-18T07:39:51.183Z,10.07
2018-03-18T07:42:18.601Z,8.87
2018-03-18T07:44:45.999Z,10.13
2018-03-18T07:47:13.450Z,9.67
2018-03-18T07:49:40.815Z,9.60
2018-03-18T07:52:08.223Z,10.00
2018-03-18T07:54:35.636Z,9.90
2018-03-18T07:57:03.046Z,10.33
2018-03-18T07:59:30.502Z,10.03
2018-03-18T08:01:57.889Z,10.17
2018-03-18T08:04:25.277Z,9.17
2018-03-18T08:06:52.685Z,10.30
2018-03-18T08:09:20.099Z,10.33
2018-03-18T08:11:47.539Z,10.13
2018-03-18T08:14:14.944Z,9.77
2018-03-18T08:16:42.354Z,9.93
2018-03-18T08:19:09.743Z,9.07
2018-03-18T08:21:37.268Z,8.43
2018-03-18T08:24:04.675Z,9.47
2018-03-18T08:26:32.063Z,9.47
2018-03-18T08:28:59.472Z,9.30
2018-03-18T08:31:26.868Z,9.43
2018-03-18T08:33:54.280Z,8.90
2018-03-18T08:36:21.680Z,8.00
2018-03-18T08:38:49.082Z,9.73
2018-03-18T08:41:16.647Z,8.73
2018-03-18T08:43:44.202Z,8.93
2018-03-18T08:46:11.593Z,8.87
2018-03-18T08:48:38.992Z,8.23
2018-03-18T08:51:06.410Z,8.87
2018-03-18T08:53:33.802Z,8.57
2018-03-18T08:56:01.371Z,9.40
2018-03-18T08:58:28.775Z,9.20
2018-03-18T09:00:56.177Z,7.77
2018-03-18T09:03:23.600Z,8.63
2018-03-18T09:05:51.009Z,8.73
2018-03-18T09:08:18.423Z,8.40
2018-03-18T09:10:45.869Z,7.93
2018-03-18T09:13:13.291Z,7.87
2018-03-18T09:15:40.692Z,8.10
2018-03-18T09:18:08.203Z,8.20
2018-03-18T09:20:35.602Z,7.83
2018-03-18T09:23:03.071Z,7.83
2018-03-18T09:25:30.484Z,7.90
2018-03-18T09:27:57.879Z,7.97
2018-03-18T09:30:25.299Z,7.63
2018-03-18T09:32:52.698Z,7.97
2018-03-18T09:35:20.140Z,7.43
2018-03-18T09:37:47.555Z,7.27
2018-03-18T09:40:14.982Z,7.37
2018-03-18T09:42:42.384Z,7.47
2018-03-18T09:45:09.795Z,7.47
2018-03-18T09:47:37.458Z,8.43
2018-03-18T09:50:04.864Z,7.63
2018-03-18T09:52:32.267Z,7.77
2018-03-18T09:54:59.692Z,7.73
2018-03-18T09:57:27.094Z,6.80
2018-03-18T09:59:54.503Z,7.33
2018-03-18T10:02:21.899Z,8.03
2018-03-18T10:04:49.390Z,7.90
2018-03-18T10:07:16.795Z,7.63
2018-03-18T10:09:44.209Z,8.23
2018-03-18T10:12:11.638Z,7.20
2018-03-18T10:14:39.060Z,6.37
2018-03-18T10:17:06.483Z,7.90
2018-03-18T10:19:33.888Z,7.93
2018-03-18T10:22:01.288Z,7.47
2018-03-18T10:24:28.723Z,7.50
2018-03-18T10:26:56.104Z,7.70
2018-03-18T10:29:23.500Z,7.60
2018-03-18T10:31:51.060Z,7.70
2018-03-18T10:34:18.471Z,7.20
2018-03-18T10:36:45.883Z,7.40
2018-03-18T10:39:13.297Z,7.03
2018-03-18T10:41:40.696Z,6.77
2018-03-18T10:44:08.178Z,7.60
2018-03-18T10:46:36.368Z,7.53
2018-03-18T10:49:03.780Z,7.53
2018-03-18T10:51:31.196Z,7.27
2018-03-18T10:53:58.607Z,6.87
2018-03-18T10:56:26.016Z,6.60
2018-03-18T10:58:53.427Z,6.63
2018-03-18T11:01:26.479Z,6.97
2018-03-18T11:03:59.738Z,6.37
2018-03-18T11:06:27.310Z,6.57
2018-03-18T11:08:54.780Z,6.27
2018-03-18T11:11:22.167Z,6.33
2018-03-18T11:13:49.589Z,5.90
2018-03-18T11:16:17.045Z,6.03
2018-03-18T11:18:44.399Z,7.27
2018-03-18T11:21:11.842Z,5.80
2018-03-18T11:23:39.275Z,7.23
2018-03-18T11:26:06.846Z,6.33
2018-03-18T11:28:34.239Z,6.93
2018-03-18T11:31:01.651Z,6.53
2018-03-18T11:33:29.067Z,6.30
2018-03-18T11:35:56.474Z,6.20
2018-03-18T11:38:23.867Z,7.23
2018-03-18T11:40:51.292Z,6.23
2018-03-18T11:43:18.704Z,6.90
2018-03-18T11:45:46.424Z,6.37
2018-03-18T11:48:13.843Z,6.50
2018-03-18T11:50:41.896Z,6.10
2018-03-18T11:53:09.323Z,5.97
2018-03-18T11:55:36.752Z,5.93
2018-03-18T11:58:04.158Z,5.90
2018-03-18T12:00:31.558Z,6.93
2018-03-18T12:02:58.983Z,6.17
2018-03-18T12:05:26.363Z,7.03
2018-03-18T12:07:53.792Z,6.10
2018-03-18T12:10:21.174Z,6.23
2018-03-18T12:12:48.591Z,6.13
2018-03-18T12:15:16.032Z,6.73
2018-03-18T12:17:43.457Z,7.13
2018-03-18T12:20:10.867Z,6.93
2018-03-18T12:22:38.267Z,6.43
2018-03-18T12:25:05.699Z,6.20
2018-03-18T12:27:33.087Z,5.90
2018-03-18T12:30:00.601Z,5.93
2018-03-18T12:32:27.983Z,6.20
2018-03-18T12:34:55.381Z,6.70
2018-03-18T12:37:22.850Z,6.40
2018-03-18T12:40:02.092Z,5.93
2018-03-18T12:42:41.269Z,6.37
2018-03-18T12:45:08.687Z,6.60
2018-03-18T12:47:36.096Z,7.10
2018-03-18T12:50:03.488Z,5.90
2018-03-18T12:52:30.891Z,6.17
2018-03-18T12:54:58.316Z,7.23
2018-03-18T12:57:25.707Z,6.50
2018-03-18T12:59:53.127Z,6.10
2018-03-18T13:02:20.528Z,7.30
2018-03-18T13:04:47.931Z,6.33
2018-03-18T13:07:15.333Z,6.57
2018-03-18T13:09:42.733Z,6.50
2018-03-18T13:12:10.133Z,7.00
2018-03-18T13:14:37.555Z,5.83
2018-03-18T13:17:05.020Z,7.10
2018-03-18T13:19:32.355Z,6.10
2018-03-18T13:21:59.801Z,5.57
2018-03-18T13:24:27.204Z,6.00
2018-03-18T13:26:54.614Z,6.10
2018-03-18T13:29:22.014Z,6.47
2018-03-18T13:31:49.464Z,6.83
2018-03-18T13:34:16.877Z,7.17
2018-03-18T13:36:44.309Z,7.20
2018-03-18T13:39:12.057Z,6.27
2018-03-18T13:41:39.521Z,6.80
2018-03-18T13:44:06.921Z,6.33
2018-03-18T13:46:34.361Z,6.90
2018-03-18T13:49:01.769Z,7.03
2018-03-18T13:51:29.167Z,7.03
2018-03-18T13:53:56.575Z,7.37
2018-03-18T13:56:23.967Z,6.63
2018-03-18T13:58:51.383Z,7.30
2018-03-18T14:01:18.768Z,6.73
2018-03-18T14:03:46.412Z,6.57
2018-03-18T14:06:13.803Z,6.37
2018-03-18T14:08:41.198Z,6.07
2018-03-18T14:11:08.620Z,7.10
2018-03-18T14:13:36.312Z,7.03
2018-03-18T14:16:03.716Z,7.00
2018-03-18T14:18:31.130Z,6.30
2018-03-18T14:20:58.536Z,7.00
2018-03-18T14:23:25.945Z,6.80
2018-03-18T14:25:53.374Z,6.93
2018-03-18T14:28:20.781Z,6.40
2018-03-18T14:30:48.191Z,6.80
2018-03-18T14:33:15.639Z,7.90
2018-03-18T14:35:43.041Z,6.73
2018-03-18T14:38:10.452Z,7.23
2018-03-18T14:40:38.184Z,6.43
2018-03-18T14:43:05.601Z,7.30
2018-03-18T14:45:32.991Z,7.40
2018-03-18T14:48:00.408Z,7.00
2018-03-18T14:50:27.809Z,6.57
2018-03-18T14:52:55.221Z,6.80
2018-03-18T14:55:22.616Z,6.63
2018-03-18T14:57:50.027Z,7.00
2018-03-18T15:00:17.468Z,6.17
2018-03-18T15:02:44.885Z,5.83
2018-03-18T15:05:12.307Z,6.37
2018-03-18T15:07:39.699Z,7.13
2018-03-18T15:10:07.124Z,6.57
2018-03-18T15:12:34.532Z,6.73
2018-03-18T15:15:01.948Z,6.10
2018-03-18T15:17:29.351Z,7.20
2018-03-18T15:19:56.762Z,6.97
2018-03-18T15:22:24.177Z,7.00
2018-03-18T15:24:51.593Z,6.67
2018-03-18T15:27:19.000Z,7.20
2018-03-18T15:29:46.438Z,6.53
2018-03-18T15:32:13.831Z,7.47
2018-03-18T15:34:41.230Z,7.43
2018-03-18T15:37:08.643Z,6.97
2018-03-18T15:39:36.040Z,6.70
2018-03-18T15:42:03.442Z,6.03
2018-03-18T15:44:30.836Z,6.67
2018-03-18T15:46:58.251Z,6.53
2018-03-18T15:49:25.644Z,5.60
2018-03-18T15:51:53.027Z,6.97
2018-03-18T15:54:20.432Z,6.30
2018-03-18T15:56:47.830Z,5.93
2018-03-18T15:59:15.286Z,7.37
2018-03-18T16:01:42.687Z,6.53
2018-03-18T16:04:10.185Z,7.03
2018-03-18T16:06:37.510Z,6.80
2018-03-18T16:09:06.018Z,6.77
2018-03-18T16:11:33.419Z,6.33
2018-03-18T16:14:00.807Z,6.33
2018-03-18T16:16:28.256Z,7.90
2018-03-18T16:18:55.659Z,5.73
2018-03-18T16:21:23.104Z,6.27
2018-03-18T16:23:50.528Z,6.37
2018-03-18T16:26:17.905Z,5.47
2018-03-18T16:28:45.301Z,6.30
2018-03-18T16:31:14.367Z,6.00
2018-03-18T16:33:41.789Z,6.33
2018-03-18T16:36:09.175Z,5.73
2018-03-18T16:38:36.615Z,6.00
2018-03-18T16:41:03.999Z,5.93
2018-03-18T16:43:31.644Z,6.63
2018-03-18T16:45:59.032Z,6.07
2018-03-18T16:48:26.451Z,6.53
2018-03-18T16:50:53.842Z,6.27
2018-03-18T16:53:21.236Z,6.10
2018-03-18T16:55:48.683Z,6.40
2018-03-18T16:58:16.099Z,6.67
2018-03-18T17:00:43.519Z,6.10
2018-03-18T17:03:10.952Z,6.50
2018-03-18T17:05:38.364Z,6.27
2018-03-18T17:08:05.751Z,5.40
2018-03-18T17:10:33.156Z,6.43
2018-03-18T17:13:00.548Z,6.30
2018-03-18T17:15:27.952Z,5.73
2018-03-18T17:17:55.363Z,5.83
2018-03-18T17:20:22.754Z,5.60
2018-03-18T17:22:50.175Z,5.90
2018-03-18T17:25:17.627Z,6.03
2018-03-18T17:27:45.048Z,6.60
2018-03-18T17:30:12.479Z,6.30
2018-03-18T17:32:40.003Z,6.23
2018-03-18T17:35:07.407Z,5.80
2018-03-18T17:37:34.816Z,6.17
2018-03-18T17:40:03.348Z,6.43
2018-03-18T17:42:30.731Z,6.77
2018-03-18T17:45:09.801Z,6.60
2018-03-18T17:47:48.912Z,7.10
2018-03-18T17:50:28.180Z,6.03
2018-03-18T17:53:07.287Z,6.00
2018-03-18T17:55:34.687Z,6.03
2018-03-18T17:58:02.084Z,6.10
2018-03-18T18:00:29.487Z,6.50
2018-03-18T18:02:56.931Z,6.07
2018-03-18T18:05:24.361Z,6.13
2018-03-18T18:07:51.743Z,6.43
2018-03-18T18:10:19.149Z,5.77
2018-03-18T18:12:46.552Z,6.10
2018-03-18T18:15:13.930Z,5.47
2018-03-18T18:17:41.386Z,7.10
2018-03-18T18:20:08.762Z,6.27
2018-03-18T18:22:36.464Z,5.43
2018-03-18T18:25:03.851Z,5.47
2018-03-18T18:27:31.236Z,6.27
2018-03-18T18:29:58.644Z,6.37
2018-03-18T18:32:26.039Z,6.33
2018-03-18T18:34:53.451Z,5.80
2018-03-18T18:37:20.851Z,6.27
2018-03-18T18:39:48.251Z,5.30
2018-03-18T18:42:15.640Z,5.53
2018-03-18T18:44:43.047Z,5.50
2018-03-18T18:47:10.446Z,5.80
2018-03-18T18:49:37.856Z,5.53
2018-03-18T18:52:05.254Z,5.27
2018-03-18T18:54:32.664Z,5.17
2018-03-18T18:57:00.065Z,5.60
2018-03-18T18:59:27.480Z,5.97
2018-03-18T19:01:54.868Z,5.13
2018-03-18T19:04:22.272Z,5.20
2018-03-18T19:06:49.654Z,5.37
2018-03-18T19:09:17.059Z,5.93
2018-03-18T19:11:44.451Z,5.60
2018-03-18T19:14:11.879Z,5.93
2018-03-18T19:16:39.264Z,5.20
2018-03-18T19:19:06.668Z,5.63
2018-03-18T19:21:34.063Z,5.43
2018-03-18T19:24:01.480Z,5.67
2018-03-18T19:26:28.877Z,5.53
2018-03-18T19:28:56.285Z,5.53
2018-03-18T19:31:23.689Z,5.73
2018-03-18T19:33:51.090Z,5.97
2018-03-18T19:36:18.499Z,5.97
2018-03-18T19:38:45.899Z,5.27
2018-03-18T19:41:13.311Z,6.00
2018-03-18T19:43:40.727Z,5.73
2018-03-18T19:46:08.131Z,5.10
2018-03-18T19:48:35.532Z,5.47
2018-03-18T19:51:03.200Z,5.33
2018-03-18T19:53:30.596Z,5.20
2018-03-18T19:55:58.015Z,5.90
2018-03-18T19:58:25.424Z,5.47
2018-03-18T20:00:52.863Z,4.87
2018-03-18T20:03:20.279Z,5.63
2018-03-18T20:05:47.952Z,5.53
2018-03-18T20:08:15.356Z,5.57
2018-03-18T20:10:42.877Z,5.30
2018-03-18T20:13:10.266Z,5.20
2018-03-18T20:15:37.664Z,5.43
2018-03-18T20:18:05.071Z,5.87
2018-03-18T20:20:32.512Z,5.20
2018-03-18T20:22:59.921Z,5.90
2018-03-18T20:25:27.311Z,5.83
2018-03-18T20:27:54.726Z,5.57
2018-03-18T20:30:22.214Z,4.97
2018-03-18T20:32:49.698Z,5.80
2018-03-18T20:35:17.120Z,5.17
2018-03-18T20:37:44.621Z,6.07
2018-03-18T20:40:12.267Z,5.13
2018-03-18T20:42:39.663Z,5.37
2018-03-18T20:45:07.081Z,5.10
2018-03-18T20:47:34.500Z,5.10
2018-03-18T20:50:08.266Z,5.60
2018-03-18T20:52:36.174Z,5.10
2018-03-18T20:55:03.561Z,5.73
2018-03-18T20:57:30.968Z,5.70
2018-03-18T20:59:58.367Z,5.10
2018-03-18T21:02:25.781Z,5.23
2018-03-18T21:04:53.178Z,5.27
2018-03-18T21:07:20.620Z,4.57
2018-03-18T21:09:48.016Z,4.93
2018-03-18T21:12:15.432Z,6.03
2018-03-18T21:14:42.862Z,5.87
2018-03-18T21:17:10.248Z,5.63
2018-03-18T21:19:37.712Z,5.17
2018-03-18T21:22:05.080Z,5.27
2018-03-18T21:24:32.483Z,4.87
2018-03-18T21:26:59.905Z,4.67
2018-03-18T21:29:27.346Z,5.37
2018-03-18T21:31:54.762Z,4.93
2018-03-18T21:34:22.143Z,5.70
2018-03-18T21:36:49.568Z,5.27
2018-03-18T21:39:16.968Z,5.23
2018-03-18T21:41:44.380Z,5.93
2018-03-18T21:44:11.783Z,5.33
2018-03-18T21:46:39.180Z,5.33
2018-03-18T21:49:06.598Z,5.73
2018-03-18T21:51:34.008Z,5.23
2018-03-18T21:54:01.419Z,5.17
2018-03-18T21:56:28.815Z,5.20
2018-03-18T21:58:56.198Z,4.90
2018-03-18T22:01:23.617Z,5.53
2018-03-18T22:03:51.015Z,5.70
2018-03-18T22:06:18.590Z,5.10
2018-03-18T22:08:46.030Z,5.63
2018-03-18T22:11:13.427Z,5.33
2018-03-18T22:13:40.848Z,5.47
2018-03-18T22:16:08.247Z,5.13
2018-03-18T22:18:35.675Z,5.07
2018-03-18T22:21:03.067Z,5.93
2018-03-18T22:23:30.491Z,5.50
2018-03-18T22:25:57.882Z,4.93
2018-03-18T22:28:25.274Z,5.67
2018-03-18T22:30:52.695Z,5.47
2018-03-18T22:33:20.127Z,6.67
2018-03-18T22:35:47.545Z,5.60
2018-03-18T22:38:14.936Z,5.40
2018-03-18T22:40:42.411Z,5.77
2018-03-18T22:43:09.827Z,5.53
2018-03-18T22:45:37.228Z,5.70
2018-03-18T22:48:04.626Z,5.60
2018-03-18T22:50:32.039Z,5.57
2018-03-18T22:52:59.439Z,5.80
2018-03-18T22:55:26.867Z,5.10
2018-03-18T22:57:54.292Z,5.90
2018-03-18T23:00:21.942Z,5.77
2018-03-18T23:02:49.356Z,5.60
2018-03-18T23:05:16.836Z,6.07
2018-03-18T23:07:44.268Z,5.93
2018-03-18T23:10:11.692Z,6.00
2018-03-18T23:12:39.100Z,6.00
2018-03-18T23:15:06.494Z,5.90
2018-03-18T23:17:33.916Z,5.63
2018-03-18T23:22:35.136Z,5.57
2018-03-18T23:25:02.545Z,7.17
2018-03-18T23:27:29.956Z,6.23
2018-03-18T23:29:57.359Z,6.07
2018-03-18T23:32:24.791Z,6.70
2018-03-18T23:34:52.205Z,6.97
2018-03-18T23:37:19.640Z,6.23
2018-03-18T23:39:47.055Z,5.60
2018-03-18T23:42:14.461Z,5.83
2018-03-18T23:44:42.532Z,6.27
2018-03-18T23:47:09.967Z,6.00
2018-03-18T23:49:37.437Z,6.03
2018-03-18T23:52:04.855Z,6.07
2018-03-18T23:54:32.260Z,6.30
2018-03-18T23:56:59.677Z,5.93
2018-03-18T23:59:27.085Z,5.60
